sensor_id;sensor_type;location;lat;lon;timestamp;pressure;altitude;pressure_sealevel;temperature;humidity
39449;BME280;25151;45.566;9.382;2023-05-02T00:01:41;99652.09;;;20.81;61.33
39449;BME280;25151;45.566;9.382;2023-05-02T00:04:42;99647.72;;;20.80;61.56
39449;BME280;25151;45.566;9.382;2023-05-02T00:07:43;99651.31;;;20.80;61.41
39449;BME280;25151;45.566;9.382;2023-05-02T00:10:43;99648.50;;;20.80;61.27
39449;BME280;25151;45.566;9.382;2023-05-02T00:13:44;99650.53;;;20.80;61.50
39449;BME280;25151;45.566;9.382;2023-05-02T00:16:45;99642.13;;;20.80;61.48
39449;BME280;25151;45.566;9.382;2023-05-02T00:19:46;99642.13;;;20.80;61.53
39449;BME280;25151;45.566;9.382;2023-05-02T00:22:46;99631.34;;;20.78;61.57
39449;BME280;25151;45.566;9.382;2023-05-02T00:25:47;99625.75;;;20.78;61.33
39449;BME280;25151;45.566;9.382;2023-05-02T00:28:48;99632.16;;;20.79;61.39
39449;BME280;25151;45.566;9.382;2023-05-02T00:31:49;99634.97;;;20.79;61.78
39449;BME280;25151;45.566;9.382;2023-05-02T00:34:50;99627.78;;;20.78;61.51
39449;BME280;25151;45.566;9.382;2023-05-02T00:37:50;99635.88;;;20.76;61.90
39449;BME280;25151;45.566;9.382;2023-05-02T00:40:51;99624.66;;;20.76;61.20
39449;BME280;25151;45.566;9.382;2023-05-02T00:43:52;99616.56;;;20.78;61.49
39449;BME280;25151;45.566;9.382;2023-05-02T00:46:54;99610.66;;;20.76;61.39
39449;BME280;25151;45.566;9.382;2023-05-02T00:49:55;99611.44;;;20.76;61.44
39449;BME280;25151;45.566;9.382;2023-05-02T00:52:58;99607.84;;;20.76;61.44
39449;BME280;25151;45.566;9.382;2023-05-02T00:56:01;99604.25;;;20.75;61.58
39449;BME280;25151;45.566;9.382;2023-05-02T00:59:02;99604.69;;;20.74;61.34
39449;BME280;25151;45.566;9.382;2023-05-02T01:02:16;99598.66;;;20.75;61.41
39449;BME280;25151;45.566;9.382;2023-05-02T01:05:26;99590.25;;;20.75;61.13
39449;BME280;25151;45.566;9.382;2023-05-02T01:08:34;99570.63;;;20.75;61.31
39449;BME280;25151;45.566;9.382;2023-05-02T01:11:57;99566.25;;;20.74;61.19
39449;BME280;25151;45.566;9.382;2023-05-02T01:15:05;99565.47;;;20.74;61.17
39449;BME280;25151;45.566;9.382;2023-05-02T01:18:08;99565.47;;;20.74;61.36
39449;BME280;25151;45.566;9.382;2023-05-02T01:21:11;99565.47;;;20.74;61.29
39449;BME280;25151;45.566;9.382;2023-05-02T01:24:18;99566.25;;;20.74;61.30
39449;BME280;25151;45.566;9.382;2023-05-02T01:31:02;99559.88;;;20.74;61.25
39449;BME280;25151;45.566;9.382;2023-05-02T01:34:07;99568.28;;;20.74;61.13
39449;BME280;25151;45.566;9.382;2023-05-02T01:37:10;99575.13;;;20.73;61.59
39449;BME280;25151;45.566;9.382;2023-05-02T01:40:19;99579.16;;;20.72;61.42
39449;BME280;25151;45.566;9.382;2023-05-02T01:43:20;99576.38;;;20.72;61.43
39449;BME280;25151;45.566;9.382;2023-05-02T01:46:21;99579.16;;;20.72;61.17
39449;BME280;25151;45.566;9.382;2023-05-02T01:49:23;99578.41;;;20.71;61.75
39449;BME280;25151;45.566;9.382;2023-05-02T01:52:25;99589.59;;;20.71;61.32
39449;BME280;25151;45.566;9.382;2023-05-02T01:55:27;99584.44;;;20.70;61.22
39449;BME280;25151;45.566;9.382;2023-05-02T01:58:29;99583.66;;;20.69;61.37
39449;BME280;25151;45.566;9.382;2023-05-02T02:01:32;99576.81;;;20.70;61.25
39449;BME280;25151;45.566;9.382;2023-05-02T02:04:36;99571.22;;;20.70;61.23
39449;BME280;25151;45.566;9.382;2023-05-02T02:07:37;99573.22;;;20.70;61.36
39449;BME280;25151;45.566;9.382;2023-05-02T02:10:45;99570.44;;;20.70;61.39
39449;BME280;25151;45.566;9.382;2023-05-02T02:13:52;99574.47;;;20.69;61.16
39449;BME280;25151;45.566;9.382;2023-05-02T02:16:58;99567.63;;;20.70;61.30
39449;BME280;25151;45.566;9.382;2023-05-02T02:20:04;99560.47;;;20.69;61.31
39449;BME280;25151;45.566;9.382;2023-05-02T02:23:08;99563.28;;;20.69;61.37
39449;BME280;25151;45.566;9.382;2023-05-02T02:26:11;99552.06;;;20.69;61.17
39449;BME280;25151;45.566;9.382;2023-05-02T02:29:12;99540.84;;;20.69;61.33
39449;BME280;25151;45.566;9.382;2023-05-02T02:32:13;99536.50;;;20.68;61.36
39449;BME280;25151;45.566;9.382;2023-05-02T02:35:13;99529.66;;;20.69;61.56
39449;BME280;25151;45.566;9.382;2023-05-02T02:38:36;99534.47;;;20.68;61.39
39449;BME280;25151;45.566;9.382;2023-05-02T02:41:42;99544.91;;;20.68;61.27
39449;BME280;25151;45.566;9.382;2023-05-02T02:45:29;99556.09;;;20.68;61.33
39449;BME280;25151;45.566;9.382;2023-05-02T02:48:35;99556.09;;;20.68;61.11
39449;BME280;25151;45.566;9.382;2023-05-02T02:51:40;99560.94;;;20.67;61.00
39449;BME280;25151;45.566;9.382;2023-05-02T02:54:46;99561.38;;;20.66;61.25
39449;BME280;25151;45.566;9.382;2023-05-02T02:58:03;99564.94;;;20.66;61.39
39449;BME280;25151;45.566;9.382;2023-05-02T03:01:10;99556.53;;;20.66;61.21
39449;BME280;25151;45.566;9.382;2023-05-02T03:04:15;99547.38;;;20.66;61.24
39449;BME280;25151;45.566;9.382;2023-05-02T03:07:15;99552.97;;;20.66;61.20
39449;BME280;25151;45.566;9.382;2023-05-02T03:10:16;99551.41;;;20.65;61.23
39449;BME280;25151;45.566;9.382;2023-05-02T03:13:17;99551.41;;;20.65;61.11
39449;BME280;25151;45.566;9.382;2023-05-02T03:16:31;99545.81;;;20.65;61.25
39449;BME280;25151;45.566;9.382;2023-05-02T03:19:33;99544.56;;;20.66;61.05
39449;BME280;25151;45.566;9.382;2023-05-02T03:22:34;99543.00;;;20.65;61.19
39449;BME280;25151;45.566;9.382;2023-05-02T03:25:35;99541.44;;;20.63;61.42
39449;BME280;25151;45.566;9.382;2023-05-02T03:28:36;99545.81;;;20.65;61.15
39449;BME280;25151;45.566;9.382;2023-05-02T03:31:36;99553.44;;;20.64;61.21
39449;BME280;25151;45.566;9.382;2023-05-02T03:34:37;99565.06;;;20.62;61.15
39449;BME280;25151;45.566;9.382;2023-05-02T03:37:37;99557.00;;;20.65;61.39
39449;BME280;25151;45.566;9.382;2023-05-02T03:40:38;99550.63;;;20.64;61.26
39449;BME280;25151;45.566;9.382;2023-05-02T03:43:39;99544.25;;;20.63;61.32
39449;BME280;25151;45.566;9.382;2023-05-02T03:46:39;99555.47;;;20.63;61.38
39449;BME280;25151;45.566;9.382;2023-05-02T03:49:40;99561.84;;;20.64;61.20
39449;BME280;25151;45.566;9.382;2023-05-02T03:52:40;99557.47;;;20.63;61.34
39449;BME280;25151;45.566;9.382;2023-05-02T03:55:42;99555.47;;;20.63;61.28
39449;BME280;25151;45.566;9.382;2023-05-02T03:58:42;99548.28;;;20.62;61.34
39449;BME280;25151;45.566;9.382;2023-05-02T04:01:47;99555.13;;;20.61;61.19
39449;BME280;25151;45.566;9.382;2023-05-02T04:04:48;99556.66;;;20.62;61.39
39449;BME280;25151;45.566;9.382;2023-05-02T04:07:48;99556.66;;;20.62;61.40
39449;BME280;25151;45.566;9.382;2023-05-02T04:10:50;99553.09;;;20.62;61.33
39449;BME280;25151;45.566;9.382;2023-05-02T04:13:52;99553.88;;;20.62;60.93
39449;BME280;25151;45.566;9.382;2023-05-02T04:16:52;99563.53;;;20.61;61.36
39449;BME280;25151;45.566;9.382;2023-05-02T04:19:53;99571.94;;;20.61;61.49
39449;BME280;25151;45.566;9.382;2023-05-02T04:22:53;99567.88;;;20.62;61.18
39449;BME280;25151;45.566;9.382;2023-05-02T04:25:54;99567.56;;;20.60;61.16
39449;BME280;25151;45.566;9.382;2023-05-02T04:28:55;99563.53;;;20.61;61.63
39449;BME280;25151;45.566;9.382;2023-05-02T04:31:56;99563.53;;;20.61;61.25
39449;BME280;25151;45.566;9.382;2023-05-02T04:34:57;99577.53;;;20.61;61.30
39449;BME280;25151;45.566;9.382;2023-05-02T04:37:57;99561.97;;;20.60;61.08
39449;BME280;25151;45.566;9.382;2023-05-02T04:40:58;99571.63;;;20.59;61.31
39449;BME280;25151;45.566;9.382;2023-05-02T04:43:58;99573.94;;;20.61;61.00
39449;BME280;25151;45.566;9.382;2023-05-02T04:46:59;99572.38;;;20.60;61.10
39449;BME280;25151;45.566;9.382;2023-05-02T04:49:59;99570.84;;;20.59;61.21
39449;BME280;25151;45.566;9.382;2023-05-02T04:53:00;99574.41;;;20.59;61.19
39449;BME280;25151;45.566;9.382;2023-05-02T04:56:00;99574.41;;;20.59;61.09
39449;BME280;25151;45.566;9.382;2023-05-02T04:59:01;99580.03;;;20.59;61.30
39449;BME280;25151;45.566;9.382;2023-05-02T05:02:02;99579.25;;;20.59;61.56
39449;BME280;25151;45.566;9.382;2023-05-02T05:05:02;99582.03;;;20.59;61.22
39449;BME280;25151;45.566;9.382;2023-05-02T05:08:03;99586.84;;;20.58;61.21
39449;BME280;25151;45.566;9.382;2023-05-02T05:11:04;99586.06;;;20.58;61.11
39449;BME280;25151;45.566;9.382;2023-05-02T05:14:05;99593.25;;;20.59;61.49
39449;BME280;25151;45.566;9.382;2023-05-02T05:17:05;99595.47;;;20.64;61.27
39449;BME280;25151;45.566;9.382;2023-05-02T05:20:06;99598.69;;;20.62;60.96
39449;BME280;25151;45.566;9.382;2023-05-02T05:23:08;99605.09;;;20.63;61.30
39449;BME280;25151;45.566;9.382;2023-05-02T05:29:10;99609.47;;;20.64;61.07
39449;BME280;25151;45.566;9.382;2023-05-02T05:32:10;99610.56;;;20.67;61.16
39449;BME280;25151;45.566;9.382;2023-05-02T05:35:11;99607.75;;;20.67;61.17
39449;BME280;25151;45.566;9.382;2023-05-02T05:38:12;99600.16;;;20.67;61.08
39449;BME280;25151;45.566;9.382;2023-05-02T05:41:14;99604.94;;;20.67;61.12
39449;BME280;25151;45.566;9.382;2023-05-02T05:44:15;99600.16;;;20.67;61.08
39449;BME280;25151;45.566;9.382;2023-05-02T05:47:19;99608.09;;;20.69;60.97
39449;BME280;25151;45.566;9.382;2023-05-02T05:50:21;99610.56;;;20.67;61.60
39449;BME280;25151;45.566;9.382;2023-05-02T05:53:21;99609.34;;;20.68;61.59
39449;BME280;25151;45.566;9.382;2023-05-02T05:56:22;99624.13;;;20.68;61.52
39449;BME280;25151;45.566;9.382;2023-05-02T05:59:23;99613.69;;;20.69;61.65
39449;BME280;25151;45.566;9.382;2023-05-02T06:02:23;99610.91;;;20.69;61.71
39449;BME280;25151;45.566;9.382;2023-05-02T06:05:24;99618.06;;;20.70;61.38
39449;BME280;25151;45.566;9.382;2023-05-02T06:08:24;99618.06;;;20.70;61.46
39449;BME280;25151;45.566;9.382;2023-05-02T06:11:25;99632.06;;;20.70;61.51
39449;BME280;25151;45.566;9.382;2023-05-02T06:14:25;99629.25;;;20.70;61.39
39449;BME280;25151;45.566;9.382;2023-05-02T06:17:26;99626.47;;;20.70;61.30
39449;BME280;25151;45.566;9.382;2023-05-02T06:20:27;99619.63;;;20.71;61.85
39449;BME280;25151;45.566;9.382;2023-05-02T06:23:27;99620.84;;;20.70;61.49
39449;BME280;25151;45.566;9.382;2023-05-02T06:26:28;99628.03;;;20.71;61.58
39449;BME280;25151;45.566;9.382;2023-05-02T06:29:28;99636.00;;;20.72;61.70
39449;BME280;25151;45.566;9.382;2023-05-02T06:32:31;99636.78;;;20.73;61.58
39449;BME280;25151;45.566;9.382;2023-05-02T06:35:32;99629.59;;;20.72;61.56
39449;BME280;25151;45.566;9.382;2023-05-02T06:38:33;99633.97;;;20.73;61.51
39449;BME280;25151;45.566;9.382;2023-05-02T06:41:33;99635.53;;;20.74;61.63
39449;BME280;25151;45.566;9.382;2023-05-02T06:44:35;99639.56;;;20.73;61.67
39449;BME280;25151;45.566;9.382;2023-05-02T06:47:35;99635.22;;;20.72;61.48
39449;BME280;25151;45.566;9.382;2023-05-02T06:50:36;99641.84;;;20.65;61.41
39449;BME280;25151;45.566;9.382;2023-05-02T06:53:37;99641.84;;;20.65;61.46
39449;BME280;25151;45.566;9.382;2023-05-02T06:56:37;99648.22;;;20.66;61.28
39449;BME280;25151;45.566;9.382;2023-05-02T06:59:38;99648.22;;;20.66;61.11
39449;BME280;25151;45.566;9.382;2023-05-02T07:02:38;99648.56;;;20.68;61.08
39449;BME280;25151;45.566;9.382;2023-05-02T07:05:39;99652.16;;;20.68;61.28
39449;BME280;25151;45.566;9.382;2023-05-02T07:08:40;99650.13;;;20.69;61.18
39449;BME280;25151;45.566;9.382;2023-05-02T07:11:40;99658.53;;;20.69;61.17
39449;BME280;25151;45.566;9.382;2023-05-02T07:14:41;99658.53;;;20.69;61.01
39449;BME280;25151;45.566;9.382;2023-05-02T07:17:42;99655.72;;;20.69;61.25
39449;BME280;25151;45.566;9.382;2023-05-02T07:20:42;99664.13;;;20.69;61.20
39449;BME280;25151;45.566;9.382;2023-05-02T07:23:43;99661.31;;;20.69;61.08
39449;BME280;25151;45.566;9.382;2023-05-02T07:30:40;99678.13;;;20.69;61.27
39449;BME280;25151;45.566;9.382;2023-05-02T07:33:41;99678.91;;;20.69;61.27
39449;BME280;25151;45.566;9.382;2023-05-02T07:36:41;99675.34;;;20.69;60.97
39449;BME280;25151;45.566;9.382;2023-05-02T07:39:42;99669.72;;;20.69;60.96
39449;BME280;25151;45.566;9.382;2023-05-02T07:42:43;99676.13;;;20.69;61.31
39449;BME280;25151;45.566;9.382;2023-05-02T07:45:43;99690.13;;;20.69;61.31
39449;BME280;25151;45.566;9.382;2023-05-02T07:48:44;99682.97;;;20.68;61.15
39449;BME280;25151;45.566;9.382;2023-05-02T07:51:45;99685.78;;;20.68;61.24
39449;BME280;25151;45.566;9.382;2023-05-02T07:54:47;99683.75;;;20.69;61.19
39449;BME280;25151;45.566;9.382;2023-05-02T07:57:51;99694.94;;;20.69;60.86
39449;BME280;25151;45.566;9.382;2023-05-02T08:00:52;99685.00;;;20.68;61.14
39449;BME280;25151;45.566;9.382;2023-05-02T08:03:55;99688.56;;;20.68;60.92
39449;BME280;25151;45.566;9.382;2023-05-02T08:06:56;99692.16;;;20.69;61.02
39449;BME280;25151;45.566;9.382;2023-05-02T08:09:57;99688.56;;;20.68;61.15
39449;BME280;25151;45.566;9.382;2023-05-02T08:12:57;99692.94;;;20.69;61.09
39449;BME280;25151;45.566;9.382;2023-05-02T08:15:58;99700.09;;;20.70;61.21
39449;BME280;25151;45.566;9.382;2023-05-02T08:18:59;99703.66;;;20.71;61.13
39449;BME280;25151;45.566;9.382;2023-05-02T08:22:00;99696.50;;;20.70;60.80
39449;BME280;25151;45.566;9.382;2023-05-02T08:25:00;99696.19;;;20.68;60.91
39449;BME280;25151;45.566;9.382;2023-05-02T08:28:01;99699.31;;;20.70;61.23
39449;BME280;25151;45.566;9.382;2023-05-02T08:31:02;99697.75;;;20.69;61.00
39449;BME280;25151;45.566;9.382;2023-05-02T08:34:03;99704.13;;;20.69;61.15
39449;BME280;25151;45.566;9.382;2023-05-02T08:37:09;99698.53;;;20.69;61.23
39449;BME280;25151;45.566;9.382;2023-05-02T08:40:12;99701.03;;;20.67;61.06
39449;BME280;25151;45.566;9.382;2023-05-02T08:43:15;99699.78;;;20.68;61.08
39449;BME280;25151;45.566;9.382;2023-05-02T08:46:16;99704.59;;;20.68;60.69
39449;BME280;25151;45.566;9.382;2023-05-02T08:49:18;99708.97;;;20.69;61.00
39449;BME280;25151;45.566;9.382;2023-05-02T08:52:21;99705.38;;;20.68;60.87
39449;BME280;25151;45.566;9.382;2023-05-02T08:55:22;99713.00;;;20.68;60.89
39449;BME280;25151;45.566;9.382;2023-05-02T08:58:27;99711.75;;;20.69;61.13
39449;BME280;25151;45.566;9.382;2023-05-02T09:01:29;99714.56;;;20.69;61.04
39449;BME280;25151;45.566;9.382;2023-05-02T09:04:33;99714.56;;;20.69;61.33
39449;BME280;25151;45.566;9.382;2023-05-02T09:07:47;99716.59;;;20.68;61.18
39449;BME280;25151;45.566;9.382;2023-05-02T09:10:48;99713.78;;;20.68;61.21
39449;BME280;25151;45.566;9.382;2023-05-02T09:13:50;99718.59;;;20.68;60.77
39449;BME280;25151;45.566;9.382;2023-05-02T09:16:57;99717.84;;;20.67;60.92
39449;BME280;25151;45.566;9.382;2023-05-02T09:19:59;99730.59;;;20.68;61.19
39449;BME280;25151;45.566;9.382;2023-05-02T09:23:00;99735.41;;;20.68;61.00
39449;BME280;25151;45.566;9.382;2023-05-02T09:26:02;99737.75;;;20.69;60.93
39449;BME280;25151;45.566;9.382;2023-05-02T09:29:10;99746.94;;;20.70;61.17
39449;BME280;25151;45.566;9.382;2023-05-02T09:32:11;99738.53;;;20.70;60.96
39449;BME280;25151;45.566;9.382;2023-05-02T09:35:11;99733.72;;;20.70;61.02
39449;BME280;25151;45.566;9.382;2023-05-02T09:38:19;99748.84;;;20.73;61.08
39449;BME280;25151;45.566;9.382;2023-05-02T09:41:22;99734.06;;;20.72;60.87
39449;BME280;25151;45.566;9.382;2023-05-02T09:44:24;99726.44;;;20.73;61.11
39449;BME280;25151;45.566;9.382;2023-05-02T09:47:25;99732.81;;;20.73;60.84
39449;BME280;25151;45.566;9.382;2023-05-02T09:50:36;99727.22;;;20.73;60.94
39449;BME280;25151;45.566;9.382;2023-05-02T09:53:42;99728.00;;;20.74;60.76
39449;BME280;25151;45.566;9.382;2023-05-02T09:56:56;99729.56;;;20.75;61.05
39449;BME280;25151;45.566;9.382;2023-05-02T09:59:57;99717.56;;;20.74;61.02
39449;BME280;25151;45.566;9.382;2023-05-02T10:02:58;99723.16;;;20.74;60.66
39449;BME280;25151;45.566;9.382;2023-05-02T10:05:59;99723.97;;;20.75;60.66
39449;BME280;25151;45.566;9.382;2023-05-02T10:09:00;99722.72;;;20.76;60.74
39449;BME280;25151;45.566;9.382;2023-05-02T10:12:02;99724.28;;;20.77;60.97
39449;BME280;25151;45.566;9.382;2023-05-02T10:15:07;99720.25;;;20.78;60.93
39449;BME280;25151;45.566;9.382;2023-05-02T10:18:14;99721.50;;;20.77;60.96
39449;BME280;25151;45.566;9.382;2023-05-02T10:21:25;99721.50;;;20.77;60.80
39449;BME280;25151;45.566;9.382;2023-05-02T10:24:27;99716.66;;;20.77;60.92
39449;BME280;25151;45.566;9.382;2023-05-02T10:27:29;99715.41;;;20.78;60.81
39449;BME280;25151;45.566;9.382;2023-05-02T10:30:33;99719.03;;;20.79;61.18
39449;BME280;25151;45.566;9.382;2023-05-02T10:33:35;99721.03;;;20.78;61.06
39449;BME280;25151;45.566;9.382;2023-05-02T10:36:38;99724.63;;;20.79;61.00
39449;BME280;25151;45.566;9.382;2023-05-02T10:39:38;99713.44;;;20.79;61.00
39449;BME280;25151;45.566;9.382;2023-05-02T10:42:46;99716.22;;;20.79;60.82
39449;BME280;25151;45.566;9.382;2023-05-02T10:45:47;99716.22;;;20.79;61.54
39449;BME280;25151;45.566;9.382;2023-05-02T10:49:00;99707.81;;;20.79;61.50
39449;BME280;25151;45.566;9.382;2023-05-02T10:52:28;99719.81;;;20.79;61.25
39449;BME280;25151;45.566;9.382;2023-05-02T10:55:30;99707.81;;;20.79;61.61
39449;BME280;25151;45.566;9.382;2023-05-02T10:58:30;99706.56;;;20.80;61.34
39449;BME280;25151;45.566;9.382;2023-05-02T11:01:33;99710.94;;;20.81;61.54
39449;BME280;25151;45.566;9.382;2023-05-02T11:11:39;99712.06;;;20.83;61.61
39449;BME280;25151;45.566;9.382;2023-05-02T11:14:42;99708.47;;;20.83;61.55
39449;BME280;25151;45.566;9.382;2023-05-02T11:17:58;99706.00;;;20.85;61.43
39449;BME280;25151;45.566;9.382;2023-05-02T11:21:26;99706.34;;;20.87;61.37
39449;BME280;25151;45.566;9.382;2023-05-02T11:24:41;99704.31;;;20.87;61.67
39449;BME280;25151;45.566;9.382;2023-05-02T11:27:43;99701.03;;;20.89;61.69
39449;BME280;25151;45.566;9.382;2023-05-02T11:30:47;99698.25;;;20.89;61.59
39449;BME280;25151;45.566;9.382;2023-05-02T11:33:59;99695.44;;;20.89;61.75
39449;BME280;25151;45.566;9.382;2023-05-02T11:37:10;99693.41;;;20.90;61.62
39449;BME280;25151;45.566;9.382;2023-05-02T11:40:11;99694.19;;;20.90;61.70
39449;BME280;25151;45.566;9.382;2023-05-02T11:43:16;99687.81;;;20.90;61.78
39449;BME280;25151;45.566;9.382;2023-05-02T11:46:18;99690.19;;;20.91;61.60
39449;BME280;25151;45.566;9.382;2023-05-02T11:49:20;99685.78;;;20.90;61.51
39449;BME280;25151;45.566;9.382;2023-05-02T11:52:22;99700.91;;;20.93;61.54
39449;BME280;25151;45.566;9.382;2023-05-02T11:55:23;99689.72;;;20.93;61.61
39449;BME280;25151;45.566;9.382;2023-05-02T11:58:26;99698.13;;;20.93;61.59
39449;BME280;25151;45.566;9.382;2023-05-02T12:01:31;99696.88;;;20.94;61.66
39449;BME280;25151;45.566;9.382;2023-05-02T12:04:41;99697.66;;;20.94;61.93
39449;BME280;25151;45.566;9.382;2023-05-02T12:07:45;99698.47;;;20.95;61.48
39449;BME280;25151;45.566;9.382;2023-05-02T12:10:49;99693.28;;;20.93;61.82
39449;BME280;25151;45.566;9.382;2023-05-02T12:13:51;99698.47;;;20.95;62.04
39449;BME280;25151;45.566;9.382;2023-05-02T12:16:52;99696.88;;;20.94;62.18
39449;BME280;25151;45.566;9.382;2023-05-02T12:19:53;99696.44;;;20.95;61.82
39449;BME280;25151;45.566;9.382;2023-05-02T12:22:54;99693.94;;;20.97;61.98
39449;BME280;25151;45.566;9.382;2023-05-02T12:25:55;99700.00;;;20.96;61.69
39449;BME280;25151;45.566;9.382;2023-05-02T12:28:55;99696.75;;;20.97;61.90
39449;BME280;25151;45.566;9.382;2023-05-02T12:31:58;99694.28;;;20.99;61.55
39449;BME280;25151;45.566;9.382;2023-05-02T12:35:00;99696.31;;;20.99;61.85
39449;BME280;25151;45.566;9.382;2023-05-02T12:38:14;99696.63;;;21.01;61.76
39449;BME280;25151;45.566;9.382;2023-05-02T12:41:16;99686.53;;;21.03;61.85
39449;BME280;25151;45.566;9.382;2023-05-02T12:44:34;99692.13;;;21.03;61.80
39449;BME280;25151;45.566;9.382;2023-05-02T12:47:43;99697.75;;;21.03;62.03
39449;BME280;25151;45.566;9.382;2023-05-02T12:50:45;99696.50;;;21.04;61.74
39449;BME280;25151;45.566;9.382;2023-05-02T12:53:46;99691.78;;;21.01;61.96
39449;BME280;25151;45.566;9.382;2023-05-02T12:56:47;99693.34;;;21.02;61.92
39449;BME280;25151;45.566;9.382;2023-05-02T12:59:52;99686.19;;;21.01;61.71
39449;BME280;25151;45.566;9.382;2023-05-02T13:02:55;99686.66;;;21.00;61.97
39449;BME280;25151;45.566;9.382;2023-05-02T13:05:56;99697.41;;;21.01;61.95
39449;BME280;25151;45.566;9.382;2023-05-02T13:08:57;99689.00;;;21.01;61.59
39449;BME280;25151;45.566;9.382;2023-05-02T13:11:58;99690.25;;;21.00;61.88
39449;BME280;25151;45.566;9.382;2023-05-02T13:14:58;99696.63;;;21.01;61.74
39449;BME280;25151;45.566;9.382;2023-05-02T13:17:59;99701.44;;;21.00;62.08
39449;BME280;25151;45.566;9.382;2023-05-02T13:21:00;99701.75;;;21.02;61.94
39449;BME280;25151;45.566;9.382;2023-05-02T13:24:01;99691.78;;;21.01;61.80
39449;BME280;25151;45.566;9.382;2023-05-02T13:27:03;99695.06;;;21.00;61.90
39449;BME280;25151;45.566;9.382;2023-05-02T13:30:04;99688.69;;;20.99;61.77
39449;BME280;25151;45.566;9.382;2023-05-02T13:33:05;99693.03;;;21.00;61.75
39449;BME280;25151;45.566;9.382;2023-05-02T13:36:06;99699.44;;;21.01;61.96
39449;BME280;25151;45.566;9.382;2023-05-02T13:39:08;99697.88;;;21.00;61.59
39449;BME280;25151;45.566;9.382;2023-05-02T13:42:09;99697.09;;;20.99;61.55
39449;BME280;25151;45.566;9.382;2023-05-02T13:45:10;99703.47;;;21.00;61.41
39449;BME280;25151;45.566;9.382;2023-05-02T13:48:11;99695.06;;;21.00;61.30
39449;BME280;25151;45.566;9.382;2023-05-02T13:51:12;99699.91;;;20.99;61.71
39449;BME280;25151;45.566;9.382;2023-05-02T13:54:13;99701.44;;;21.00;61.80
39449;BME280;25151;45.566;9.382;2023-05-02T13:57:14;99697.09;;;20.99;61.43
39449;BME280;25151;45.566;9.382;2023-05-02T14:00:15;99691.47;;;20.99;61.40
39449;BME280;25151;45.566;9.382;2023-05-02T14:03:16;99692.25;;;21.00;61.30
39449;BME280;25151;45.566;9.382;2023-05-02T14:06:17;99695.06;;;21.00;61.44
39449;BME280;25151;45.566;9.382;2023-05-02T14:09:18;99693.50;;;20.99;61.29
39449;BME280;25151;45.566;9.382;2023-05-02T14:12:19;99689.91;;;20.98;61.59
39449;BME280;25151;45.566;9.382;2023-05-02T14:15:20;99681.47;;;20.98;61.54
39449;BME280;25151;45.566;9.382;2023-05-02T14:18:21;99688.69;;;20.99;61.61
39449;BME280;25151;45.566;9.382;2023-05-02T14:21:22;99681.47;;;20.98;61.31
39449;BME280;25151;45.566;9.382;2023-05-02T14:24:22;99686.31;;;20.98;61.56
39449;BME280;25151;45.566;9.382;2023-05-02T14:27:23;99687.91;;;20.99;61.60
39449;BME280;25151;45.566;9.382;2023-05-02T14:30:25;99699.13;;;20.99;61.49
39449;BME280;25151;45.566;9.382;2023-05-02T14:33:25;99699.91;;;20.99;61.22
39449;BME280;25151;45.566;9.382;2023-05-02T14:36:26;99693.16;;;20.97;61.26
39449;BME280;25151;45.566;9.382;2023-05-02T14:39:27;99685.53;;;20.97;61.63
39449;BME280;25151;45.566;9.382;2023-05-02T14:42:28;99691.13;;;20.97;61.42
39449;BME280;25151;45.566;9.382;2023-05-02T14:45:28;99687.56;;;20.97;61.35
39449;BME280;25151;45.566;9.382;2023-05-02T14:48:30;99695.97;;;20.97;61.46
39449;BME280;25151;45.566;9.382;2023-05-02T14:51:30;99693.94;;;20.97;61.25
39449;BME280;25151;45.566;9.382;2023-05-02T14:54:31;99701.56;;;20.97;61.13
39449;BME280;25151;45.566;9.382;2023-05-02T14:57:32;99701.56;;;20.97;61.21
39449;BME280;25151;45.566;9.382;2023-05-02T15:00:33;99696.75;;;20.97;61.30
39449;BME280;25151;45.566;9.382;2023-05-02T15:03:36;99698.78;;;20.97;61.44
39449;BME280;25151;45.566;9.382;2023-05-02T15:06:37;99702.34;;;20.97;61.38
39449;BME280;25151;45.566;9.382;2023-05-02T15:09:39;99703.59;;;20.96;61.21
39449;BME280;25151;45.566;9.382;2023-05-02T15:12:43;99708.44;;;20.96;61.32
39449;BME280;25151;45.566;9.382;2023-05-02T15:15:46;99712.00;;;20.96;61.23
39449;BME280;25151;45.566;9.382;2023-05-02T15:18:47;99708.84;;;20.94;61.34
39449;BME280;25151;45.566;9.382;2023-05-02T15:21:47;99709.19;;;20.96;61.28
39449;BME280;25151;45.566;9.382;2023-05-02T15:24:49;99716.06;;;20.95;61.27
39449;BME280;25151;45.566;9.382;2023-05-02T15:27:50;99716.06;;;20.95;61.31
39449;BME280;25151;45.566;9.382;2023-05-02T15:30:50;99710.44;;;20.95;61.36
39449;BME280;25151;45.566;9.382;2023-05-02T15:33:51;99711.22;;;20.96;61.23
39449;BME280;25151;45.566;9.382;2023-05-02T15:36:52;99704.84;;;20.95;61.06
39449;BME280;25151;45.566;9.382;2023-05-02T15:39:56;99710.44;;;20.95;61.31
39449;BME280;25151;45.566;9.382;2023-05-02T15:42:57;99718.84;;;20.95;61.12
39449;BME280;25151;45.566;9.382;2023-05-02T15:45:58;99716.06;;;20.95;61.36
39449;BME280;25151;45.566;9.382;2023-05-02T15:48:59;99722.75;;;20.98;60.98
39449;BME280;25151;45.566;9.382;2023-05-02T15:52:00;99717.94;;;20.98;61.19
39449;BME280;25151;45.566;9.382;2023-05-02T15:55:01;99716.72;;;20.99;61.39
39449;BME280;25151;45.566;9.382;2023-05-02T15:58:02;99723.88;;;21.00;61.05
39449;BME280;25151;45.566;9.382;2023-05-02T16:01:03;99731.03;;;21.01;61.15
39449;BME280;25151;45.566;9.382;2023-05-02T16:04:05;99731.03;;;21.01;61.32
39449;BME280;25151;45.566;9.382;2023-05-02T16:07:06;99732.59;;;21.02;61.30
39449;BME280;25151;45.566;9.382;2023-05-02T16:10:07;99738.22;;;21.02;61.25
39449;BME280;25151;45.566;9.382;2023-05-02T16:13:08;99741.00;;;21.02;61.83
39449;BME280;25151;45.566;9.382;2023-05-02T16:16:09;99741.00;;;21.02;61.44
39449;BME280;25151;45.566;9.382;2023-05-02T16:19:10;99742.59;;;21.03;61.54
39449;BME280;25151;45.566;9.382;2023-05-02T16:22:13;99741.34;;;21.04;61.74
39449;BME280;25151;45.566;9.382;2023-05-02T16:25:15;99746.97;;;21.04;61.64